sensor_id;sensor_type;location;lat;lon;timestamp;pressure;altitude;pressure_sealevel;temperature;humidity
1616;BME280;801;47.982;7.810;2023-01-30T00:00:51;99523.25;;;-0.92;100.00
1616;BME280;801;47.982;7.810;2023-01-30T00:03:18;99511.88;;;-0.84;100.00
1616;BME280;801;47.982;7.810;2023-01-30T00:05:45;99504.91;;;-1.10;100.00
1616;BME280;801;47.982;7.810;2023-01-30T00:08:11;99490.75;;;-0.92;100.00
1616;BME280;801;47.982;7.810;2023-01-30T00:10:38;99472.63;;;-0.63;100.00
1616;BME280;801;47.982;7.810;2023-01-30T00:13:04;99461.38;;;-0.56;100.00
1616;BME280;801;47.982;7.810;2023-01-30T00:15:32;99458.38;;;-0.29;100.00
1616;BME280;801;47.982;7.810;2023-01-30T00:17:59;99443.53;;;-0.46;100.00
1616;BME280;801;47.982;7.810;2023-01-30T00:20:25;99433.69;;;-0.85;100.00
1616;BME280;801;47.982;7.810;2023-01-30T00:22:52;99441.38;;;-0.34;100.00
1616;BME280;801;47.982;7.810;2023-01-30T00:25:18;99437.59;;;-0.40;100.00
1616;BME280;801;47.982;7.810;2023-01-30T00:27:45;99439.09;;;-0.46;100.00
1616;BME280;801;47.982;7.810;2023-01-30T00:30:12;99444.06;;;0.05;100.00
1616;BME280;801;47.982;7.810;2023-01-30T00:32:39;99456.22;;;0.23;100.00
1616;BME280;801;47.982;7.810;2023-01-30T00:35:06;99430.38;;;0.33;100.00
1616;BME280;801;47.982;7.810;2023-01-30T00:37:33;99437.09;;;0.12;100.00
1616;BME280;801;47.982;7.810;2023-01-30T00:39:59;99443.53;;;0.49;100.00
1616;BME280;801;47.982;7.810;2023-01-30T00:42:26;99436.00;;;0.61;100.00
1616;BME280;801;47.982;7.810;2023-01-30T00:45:10;99415.28;;;0.65;100.00
1616;BME280;801;47.982;7.810;2023-01-30T00:47:56;99408.00;;;0.67;100.00
1616;BME280;801;47.982;7.810;2023-01-30T00:50:23;99405.91;;;0.62;100.00
1616;BME280;801;47.982;7.810;2023-01-30T00:52:50;99394.44;;;0.70;100.00
1616;BME280;801;47.982;7.810;2023-01-30T00:55:16;99396.25;;;0.69;100.00
1616;BME280;801;47.982;7.810;2023-01-30T00:57:43;99406.59;;;0.79;100.00
1616;BME280;801;47.982;7.810;2023-01-30T01:00:11;99414.88;;;0.99;100.00
1616;BME280;801;47.982;7.810;2023-01-30T01:02:37;99406.63;;;1.17;100.00
1616;BME280;801;47.982;7.810;2023-01-30T01:05:06;99395.28;;;1.08;100.00
1616;BME280;801;47.982;7.810;2023-01-30T01:07:32;99383.91;;;0.61;100.00
1616;BME280;801;47.982;7.810;2023-01-30T01:09:59;99389.78;;;0.95;100.00
1616;BME280;801;47.982;7.810;2023-01-30T01:12:25;99378.97;;;1.19;100.00
1616;BME280;801;47.982;7.810;2023-01-30T01:14:52;99388.66;;;0.89;100.00
1616;BME280;801;47.982;7.810;2023-01-30T01:17:18;99400.84;;;1.13;100.00
1616;BME280;801;47.982;7.810;2023-01-30T01:19:45;99400.03;;;1.13;100.00
1616;BME280;801;47.982;7.810;2023-01-30T01:22:12;99401.34;;;0.94;100.00
1616;BME280;801;47.982;7.810;2023-01-30T01:24:39;99392.69;;;1.00;100.00
1616;BME280;801;47.982;7.810;2023-01-30T01:27:05;99411.13;;;0.93;100.00
1616;BME280;801;47.982;7.810;2023-01-30T01:29:32;99406.94;;;0.76;100.00
1616;BME280;801;47.982;7.810;2023-01-30T01:31:58;99426.25;;;1.08;100.00
1616;BME280;801;47.982;7.810;2023-01-30T01:34:25;99451.41;;;1.03;100.00
1616;BME280;801;47.982;7.810;2023-01-30T01:36:51;99474.34;;;0.88;100.00
1616;BME280;801;47.982;7.810;2023-01-30T01:39:19;99480.28;;;0.90;100.00
1616;BME280;801;47.982;7.810;2023-01-30T01:41:46;99495.16;;;0.68;100.00
1616;BME280;801;47.982;7.810;2023-01-30T01:44:13;99498.34;;;0.87;100.00
1616;BME280;801;47.982;7.810;2023-01-30T01:46:43;99519.38;;;0.49;100.00
1616;BME280;801;47.982;7.810;2023-01-30T01:49:14;99534.84;;;0.68;100.00
1616;BME280;801;47.982;7.810;2023-01-30T01:51:47;99547.97;;;0.85;100.00
1616;BME280;801;47.982;7.810;2023-01-30T01:54:20;99569.28;;;0.91;100.00
1616;BME280;801;47.982;7.810;2023-01-30T01:56:49;99562.72;;;0.48;100.00
1616;BME280;801;47.982;7.810;2023-01-30T01:59:21;99568.84;;;0.40;100.00
1616;BME280;801;47.982;7.810;2023-01-30T02:01:51;99575.16;;;0.31;100.00
1616;BME280;801;47.982;7.810;2023-01-30T02:04:19;99578.59;;;0.31;100.00
1616;BME280;801;47.982;7.810;2023-01-30T02:07:10;99566.53;;;0.45;100.00
1616;BME280;801;47.982;7.810;2023-01-30T02:09:38;99550.84;;;0.35;100.00
1616;BME280;801;47.982;7.810;2023-01-30T02:12:04;99543.44;;;0.62;100.00
1616;BME280;801;47.982;7.810;2023-01-30T02:14:32;99543.94;;;0.66;100.00
1616;BME280;801;47.982;7.810;2023-01-30T02:16:59;99547.06;;;0.69;100.00
1616;BME280;801;47.982;7.810;2023-01-30T02:19:36;99538.66;;;0.66;100.00
1616;BME280;801;47.982;7.810;2023-01-30T02:22:26;99541.00;;;0.60;100.00
1616;BME280;801;47.982;7.810;2023-01-30T02:25:13;99532.03;;;0.70;100.00
1616;BME280;801;47.982;7.810;2023-01-30T02:28:21;99529.53;;;0.68;100.00
1616;BME280;801;47.982;7.810;2023-01-30T02:31:20;99541.13;;;0.67;100.00
1616;BME280;801;47.982;7.810;2023-01-30T02:33:59;99535.25;;;0.80;100.00
1616;BME280;801;47.982;7.810;2023-01-30T02:36:37;99552.22;;;0.62;100.00
1616;BME280;801;47.982;7.810;2023-01-30T02:39:12;99540.09;;;0.76;100.00
1616;BME280;801;47.982;7.810;2023-01-30T02:41:56;99514.34;;;0.93;100.00
1616;BME280;801;47.982;7.810;2023-01-30T02:44:29;99524.13;;;0.61;100.00
1616;BME280;801;47.982;7.810;2023-01-30T02:47:03;99511.56;;;0.55;100.00
1616;BME280;801;47.982;7.810;2023-01-30T02:49:35;99506.22;;;0.72;100.00
1616;BME280;801;47.982;7.810;2023-01-30T02:52:05;99506.13;;;0.88;100.00
1616;BME280;801;47.982;7.810;2023-01-30T02:54:32;99496.53;;;0.87;100.00
1616;BME280;801;47.982;7.810;2023-01-30T02:56:59;99496.91;;;0.76;100.00
1616;BME280;801;47.982;7.810;2023-01-30T02:59:28;99519.84;;;0.60;100.00
1616;BME280;801;47.982;7.810;2023-01-30T03:02:25;99504.38;;;1.03;100.00
1616;BME280;801;47.982;7.810;2023-01-30T03:05:15;99520.97;;;0.58;100.00
1616;BME280;801;47.982;7.810;2023-01-30T03:07:48;99545.53;;;0.83;100.00
1616;BME280;801;47.982;7.810;2023-01-30T03:10:24;99503.34;;;0.50;100.00
1616;BME280;801;47.982;7.810;2023-01-30T03:12:57;99496.75;;;0.46;100.00
1616;BME280;801;47.982;7.810;2023-01-30T03:15:32;99488.53;;;0.33;100.00
1616;BME280;801;47.982;7.810;2023-01-30T03:18:01;99489.84;;;0.68;100.00
1616;BME280;801;47.982;7.810;2023-01-30T03:20:29;99493.00;;;0.40;100.00
1616;BME280;801;47.982;7.810;2023-01-30T03:22:56;99493.19;;;0.62;100.00
1616;BME280;801;47.982;7.810;2023-01-30T03:25:24;99464.19;;;0.46;100.00
1616;BME280;801;47.982;7.810;2023-01-30T03:27:53;99476.78;;;0.35;100.00
1616;BME280;801;47.982;7.810;2023-01-30T03:30:22;99478.50;;;0.59;100.00
1616;BME280;801;47.982;7.810;2023-01-30T03:32:49;99476.00;;;0.27;100.00
1616;BME280;801;47.982;7.810;2023-01-30T03:35:17;99475.69;;;0.30;100.00
1616;BME280;801;47.982;7.810;2023-01-30T03:37:44;99459.94;;;0.36;100.00
1616;BME280;801;47.982;7.810;2023-01-30T03:40:12;99432.69;;;0.36;100.00
1616;BME280;801;47.982;7.810;2023-01-30T03:42:40;99441.59;;;0.35;100.00
1616;BME280;801;47.982;7.810;2023-01-30T03:45:08;99449.09;;;0.54;100.00
1616;BME280;801;47.982;7.810;2023-01-30T03:47:35;99441.97;;;0.32;100.00
1616;BME280;801;47.982;7.810;2023-01-30T03:50:01;99443.25;;;0.36;100.00
1616;BME280;801;47.982;7.810;2023-01-30T03:52:29;99439.69;;;0.20;100.00
1616;BME280;801;47.982;7.810;2023-01-30T03:54:56;99425.78;;;0.27;100.00
1616;BME280;801;47.982;7.810;2023-01-30T03:57:22;99436.88;;;0.22;100.00
1616;BME280;801;47.982;7.810;2023-01-30T03:59:49;99428.91;;;0.30;100.00
1616;BME280;801;47.982;7.810;2023-01-30T04:02:15;99415.78;;;0.45;100.00
1616;BME280;801;47.982;7.810;2023-01-30T04:04:45;99390.34;;;0.67;100.00
1616;BME280;801;47.982;7.810;2023-01-30T04:07:11;99405.31;;;0.52;100.00
1616;BME280;801;47.982;7.810;2023-01-30T04:09:39;99406.53;;;0.64;100.00
1616;BME280;801;47.982;7.810;2023-01-30T04:12:06;99411.22;;;0.31;100.00
1616;BME280;801;47.982;7.810;2023-01-30T04:14:32;99414.91;;;0.45;100.00
1616;BME280;801;47.982;7.810;2023-01-30T04:16:59;99425.47;;;0.22;100.00
1616;BME280;801;47.982;7.810;2023-01-30T04:19:25;99422.69;;;0.46;100.00
1616;BME280;801;47.982;7.810;2023-01-30T04:21:52;99413.06;;;0.53;100.00
1616;BME280;801;47.982;7.810;2023-01-30T04:24:18;99439.00;;;0.27;100.00
1616;BME280;801;47.982;7.810;2023-01-30T04:26:46;99432.63;;;0.44;100.00
1616;BME280;801;47.982;7.810;2023-01-30T04:29:13;99449.53;;;0.35;100.00
1616;BME280;801;47.982;7.810;2023-01-30T04:31:39;99473.06;;;0.22;100.00
1616;BME280;801;47.982;7.810;2023-01-30T04:34:06;99462.41;;;0.38;100.00
1616;BME280;801;47.982;7.810;2023-01-30T04:36:32;99464.06;;;0.39;100.00
1616;BME280;801;47.982;7.810;2023-01-30T04:38:59;99440.75;;;0.43;100.00
1616;BME280;801;47.982;7.810;2023-01-30T04:41:25;99453.19;;;0.34;100.00
1616;BME280;801;47.982;7.810;2023-01-30T04:43:53;99453.34;;;0.32;100.00
1616;BME280;801;47.982;7.810;2023-01-30T04:46:19;99475.00;;;0.36;100.00
1616;BME280;801;47.982;7.810;2023-01-30T04:48:46;99486.13;;;0.54;100.00
1616;BME280;801;47.982;7.810;2023-01-30T04:51:12;99482.28;;;0.34;100.00
1616;BME280;801;47.982;7.810;2023-01-30T04:53:39;99485.22;;;0.39;100.00
1616;BME280;801;47.982;7.810;2023-01-30T04:56:06;99480.41;;;0.43;100.00
1616;BME280;801;47.982;7.810;2023-01-30T04:58:32;99486.25;;;0.30;100.00
1616;BME280;801;47.982;7.810;2023-01-30T05:01:14;99469.13;;;0.49;100.00
1616;BME280;801;47.982;7.810;2023-01-30T05:03:40;99461.38;;;0.47;100.00
1616;BME280;801;47.982;7.810;2023-01-30T05:06:07;99473.09;;;0.45;100.00
1616;BME280;801;47.982;7.810;2023-01-30T05:08:33;99477.38;;;0.54;100.00
1616;BME280;801;47.982;7.810;2023-01-30T05:11:00;99470.31;;;0.46;100.00
1616;BME280;801;47.982;7.810;2023-01-30T05:13:26;99473.69;;;0.32;100.00
1616;BME280;801;47.982;7.810;2023-01-30T05:15:53;99464.63;;;0.26;100.00
1616;BME280;801;47.982;7.810;2023-01-30T05:18:21;99457.34;;;0.20;100.00
1616;BME280;801;47.982;7.810;2023-01-30T05:20:47;99464.53;;;0.74;100.00
1616;BME280;801;47.982;7.810;2023-01-30T05:23:14;99483.00;;;0.51;100.00
1616;BME280;801;47.982;7.810;2023-01-30T05:25:40;99503.75;;;0.31;100.00
1616;BME280;801;47.982;7.810;2023-01-30T05:28:07;99510.25;;;0.59;100.00
1616;BME280;801;47.982;7.810;2023-01-30T05:30:33;99495.03;;;0.22;100.00
1616;BME280;801;47.982;7.810;2023-01-30T05:32:59;99478.69;;;0.18;100.00
1616;BME280;801;47.982;7.810;2023-01-30T05:35:28;99468.22;;;0.33;100.00
1616;BME280;801;47.982;7.810;2023-01-30T05:37:54;99450.69;;;0.40;100.00
1616;BME280;801;47.982;7.810;2023-01-30T05:40:20;99477.56;;;0.13;100.00
1616;BME280;801;47.982;7.810;2023-01-30T05:42:47;99487.56;;;0.34;100.00
1616;BME280;801;47.982;7.810;2023-01-30T05:45:13;99511.09;;;0.12;100.00
1616;BME280;801;47.982;7.810;2023-01-30T05:47:40;99492.72;;;0.27;100.00
1616;BME280;801;47.982;7.810;2023-01-30T05:50:08;99494.50;;;0.27;100.00
1616;BME280;801;47.982;7.810;2023-01-30T05:52:36;99472.84;;;0.31;100.00
1616;BME280;801;47.982;7.810;2023-01-30T05:55:03;99470.72;;;0.27;100.00
1616;BME280;801;47.982;7.810;2023-01-30T05:57:29;99476.63;;;0.37;100.00
1616;BME280;801;47.982;7.810;2023-01-30T05:59:56;99457.97;;;0.38;100.00
1616;BME280;801;47.982;7.810;2023-01-30T06:02:22;99447.25;;;0.32;100.00
1616;BME280;801;47.982;7.810;2023-01-30T06:04:49;99439.59;;;0.37;100.00
1616;BME280;801;47.982;7.810;2023-01-30T06:07:15;99430.38;;;0.33;100.00
1616;BME280;801;47.982;7.810;2023-01-30T06:09:43;99440.63;;;0.36;100.00
1616;BME280;801;47.982;7.810;2023-01-30T06:12:09;99462.47;;;0.30;100.00
1616;BME280;801;47.982;7.810;2023-01-30T06:14:36;99465.28;;;0.59;100.00
1616;BME280;801;47.982;7.810;2023-01-30T06:17:02;99448.81;;;0.72;100.00
1616;BME280;801;47.982;7.810;2023-01-30T06:19:29;99467.13;;;0.19;100.00
1616;BME280;801;47.982;7.810;2023-01-30T06:21:55;99454.66;;;0.36;100.00
1616;BME280;801;47.982;7.810;2023-01-30T06:24:22;99455.88;;;0.57;100.00
1616;BME280;801;47.982;7.810;2023-01-30T06:26:49;99463.91;;;0.40;100.00
1616;BME280;801;47.982;7.810;2023-01-30T06:29:16;99453.38;;;0.55;100.00
1616;BME280;801;47.982;7.810;2023-01-30T06:31:42;99461.84;;;0.51;100.00
1616;BME280;801;47.982;7.810;2023-01-30T06:34:09;99469.25;;;0.55;100.00
1616;BME280;801;47.982;7.810;2023-01-30T06:36:36;99464.06;;;0.39;100.00
1616;BME280;801;47.982;7.810;2023-01-30T06:39:02;99464.63;;;0.26;100.00
1616;BME280;801;47.982;7.810;2023-01-30T06:41:29;99451.81;;;0.38;100.00
1616;BME280;801;47.982;7.810;2023-01-30T06:43:57;99447.25;;;0.32;100.00
1616;BME280;801;47.982;7.810;2023-01-30T06:46:23;99449.88;;;0.32;100.00
1616;BME280;801;47.982;7.810;2023-01-30T06:48:50;99451.69;;;0.31;100.00
1616;BME280;801;47.982;7.810;2023-01-30T06:51:16;99474.16;;;0.35;100.00
1616;BME280;801;47.982;7.810;2023-01-30T06:53:43;99479.56;;;0.42;100.00
1616;BME280;801;47.982;7.810;2023-01-30T06:56:09;99454.56;;;0.53;100.00
1616;BME280;801;47.982;7.810;2023-01-30T06:58:36;99431.97;;;0.42;100.00
1616;BME280;801;47.982;7.810;2023-01-30T07:01:04;99432.31;;;0.39;100.00
1616;BME280;801;47.982;7.810;2023-01-30T07:03:30;99432.31;;;0.39;100.00
1616;BME280;801;47.982;7.810;2023-01-30T07:05:57;99425.50;;;0.45;100.00
1616;BME280;801;47.982;7.810;2023-01-30T07:08:23;99420.56;;;0.41;100.00
1616;BME280;801;47.982;7.810;2023-01-30T07:10:50;99422.03;;;0.44;100.00
1616;BME280;801;47.982;7.810;2023-01-30T07:13:16;99434.47;;;0.67;100.00
1616;BME280;801;47.982;7.810;2023-01-30T07:15:43;99420.41;;;0.66;100.00
1616;BME280;801;47.982;7.810;2023-01-30T07:18:11;99407.34;;;0.65;100.00
1616;BME280;801;47.982;7.810;2023-01-30T07:20:38;99394.13;;;0.41;100.00
1616;BME280;801;47.982;7.810;2023-01-30T07:23:06;99402.22;;;0.40;100.00
1616;BME280;801;47.982;7.810;2023-01-30T07:25:33;99401.53;;;0.69;100.00
1616;BME280;801;47.982;7.810;2023-01-30T07:28:00;99408.91;;;0.59;100.00
1616;BME280;801;47.982;7.810;2023-01-30T07:30:29;99407.44;;;0.56;100.00
1616;BME280;801;47.982;7.810;2023-01-30T07:32:58;99413.19;;;0.60;100.00
1616;BME280;801;47.982;7.810;2023-01-30T07:35:28;99428.22;;;0.59;100.00
1616;BME280;801;47.982;7.810;2023-01-30T07:37:55;99437.31;;;0.65;100.00
1616;BME280;801;47.982;7.810;2023-01-30T07:40:22;99424.84;;;0.74;100.00
1616;BME280;801;47.982;7.810;2023-01-30T07:42:56;99419.41;;;0.44;100.00
1616;BME280;801;47.982;7.810;2023-01-30T07:45:23;99429.94;;;0.52;100.00
1616;BME280;801;47.982;7.810;2023-01-30T07:47:50;99435.31;;;0.67;100.00
1616;BME280;801;47.982;7.810;2023-01-30T07:50:16;99438.91;;;0.43;100.00
1616;BME280;801;47.982;7.810;2023-01-30T07:52:44;99447.97;;;0.49;100.00
1616;BME280;801;47.982;7.810;2023-01-30T07:55:10;99441.22;;;0.69;100.00
1616;BME280;801;47.982;7.810;2023-01-30T07:57:37;99440.94;;;0.64;100.00
1616;BME280;801;47.982;7.810;2023-01-30T08:00:05;99487.84;;;0.47;100.00
1616;BME280;801;47.982;7.810;2023-01-30T08:02:34;99473.38;;;0.58;100.00
1616;BME280;801;47.982;7.810;2023-01-30T08:05:01;99491.75;;;0.51;100.00
1616;BME280;801;47.982;7.810;2023-01-30T08:07:28;99481.28;;;0.66;100.00
1616;BME280;801;47.982;7.810;2023-01-30T08:09:55;99482.44;;;0.64;100.00
1616;BME280;801;47.982;7.810;2023-01-30T08:12:22;99462.09;;;0.64;100.00
1616;BME280;801;47.982;7.810;2023-01-30T08:14:48;99475.50;;;0.62;100.00
1616;BME280;801;47.982;7.810;2023-01-30T08:17:15;99467.72;;;0.92;100.00
1616;BME280;801;47.982;7.810;2023-01-30T08:19:41;99474.00;;;0.91;100.00
1616;BME280;801;47.982;7.810;2023-01-30T08:22:08;99469.31;;;0.78;100.00
1616;BME280;801;47.982;7.810;2023-01-30T08:24:34;99458.75;;;0.93;100.00
1616;BME280;801;47.982;7.810;2023-01-30T08:27:02;99458.47;;;0.88;100.00
1616;BME280;801;47.982;7.810;2023-01-30T08:29:29;99447.53;;;0.91;100.00
1616;BME280;801;47.982;7.810;2023-01-30T08:31:56;99428.84;;;0.70;100.00
1616;BME280;801;47.982;7.810;2023-01-30T08:34:23;99417.16;;;0.87;100.00
1616;BME280;801;47.982;7.810;2023-01-30T08:36:49;99449.72;;;0.88;100.00
1616;BME280;801;47.982;7.810;2023-01-30T08:39:16;99453.38;;;1.24;100.00
1616;BME280;801;47.982;7.810;2023-01-30T08:41:43;99462.94;;;1.11;100.00
1616;BME280;801;47.982;7.810;2023-01-30T08:44:11;99467.31;;;1.03;100.00
1616;BME280;801;47.982;7.810;2023-01-30T08:46:38;99467.97;;;1.20;100.00
1616;BME280;801;47.982;7.810;2023-01-30T08:49:05;99461.53;;;1.23;100.00
1616;BME280;801;47.982;7.810;2023-01-30T08:51:32;99476.81;;;1.13;100.00
1616;BME280;801;47.982;7.810;2023-01-30T08:53:58;99502.00;;;1.09;100.00
1616;BME280;801;47.982;7.810;2023-01-30T08:56:25;99493.63;;;1.20;100.00
1616;BME280;801;47.982;7.810;2023-01-30T08:58:51;99515.03;;;1.18;100.00
1616;BME280;801;47.982;7.810;2023-01-30T09:01:19;99506.63;;;1.53;100.00
1616;BME280;801;47.982;7.810;2023-01-30T09:03:46;99512.72;;;1.15;100.00
1616;BME280;801;47.982;7.810;2023-01-30T09:06:13;99530.00;;;1.26;100.00
1616;BME280;801;47.982;7.810;2023-01-30T09:08:39;99507.53;;;1.22;100.00
1616;BME280;801;47.982;7.810;2023-01-30T09:11:06;99496.56;;;1.48;100.00
1616;BME280;801;47.982;7.810;2023-01-30T09:13:33;99499.22;;;1.25;100.00
1616;BME280;801;47.982;7.810;2023-01-30T09:16:00;99496.28;;;1.43;100.00
1616;BME280;801;47.982;7.810;2023-01-30T09:18:29;99480.06;;;1.61;100.00
1616;BME280;801;47.982;7.810;2023-01-30T09:21:01;99498.59;;;1.23;100.00
1616;BME280;801;47.982;7.810;2023-01-30T09:23:28;99485.97;;;1.25;100.00
1616;BME280;801;47.982;7.810;2023-01-30T09:25:54;99484.81;;;1.28;100.00
1616;BME280;801;47.982;7.810;2023-01-30T09:28:20;99482.28;;;1.34;100.00
1616;BME280;801;47.982;7.810;2023-01-30T09:30:47;99493.63;;;1.43;100.00
1616;BME280;801;47.982;7.810;2023-01-30T09:33:14;99479.47;;;1.51;100.00
1616;BME280;801;47.982;7.810;2023-01-30T09:35:47;99465.22;;;1.52;100.00
1616;BME280;801;47.982;7.810;2023-01-30T09:38:14;99474.06;;;1.44;100.00
1616;BME280;801;47.982;7.810;2023-01-30T09:40:50;99481.38;;;1.42;100.00
1616;BME280;801;47.982;7.810;2023-01-30T09:43:32;99463.31;;;1.45;100.00
1616;BME280;801;47.982;7.810;2023-01-30T09:46:13;99495.16;;;1.37;100.00
1616;BME280;801;47.982;7.810;2023-01-30T09:48:48;99470.31;;;1.38;100.00
1616;BME280;801;47.982;7.810;2023-01-30T09:51:41;99484.28;;;1.70;100.00
1616;BME280;801;47.982;7.810;2023-01-30T09:54:20;99481.75;;;1.54;100.00
1616;BME280;801;47.982;7.810;2023-01-30T09:57:08;99459.91;;;1.52;100.00
1616;BME280;801;47.982;7.810;2023-01-30T09:59:42;99457.28;;;1.52;100.00
1616;BME280;801;47.982;7.810;2023-01-30T10:02:26;99459.97;;;1.81;100.00
1616;BME280;801;47.982;7.810;2023-01-30T10:04:54;99466.38;;;1.72;100.00
1616;BME280;801;47.982;7.810;2023-01-30T10:07:33;99473.50;;;1.86;100.00
1616;BME280;801;47.982;7.810;2023-01-30T10:10:07;99480.63;;;2.01;100.00
1616;BME280;801;47.982;7.810;2023-01-30T10:12:46;99490.13;;;1.80;100.00
1616;BME280;801;47.982;7.810;2023-01-30T10:15:30;99492.31;;;1.92;100.00
1616;BME280;801;47.982;7.810;2023-01-30T10:21:05;99493.09;;;1.62;100.00
1616;BME280;801;47.982;7.810;2023-01-30T10:23:47;99482.38;;;1.79;100.00
1616;BME280;801;47.982;7.810;2023-01-30T10:26:20;99465.81;;;1.77;100.00
1616;BME280;801;47.982;7.810;2023-01-30T10:28:55;99452.00;;;1.66;100.00
1616;BME280;801;47.982;7.810;2023-01-30T10:31:25;99423.66;;;1.67;100.00
1616;BME280;801;47.982;7.810;2023-01-30T10:33:57;99434.00;;;1.92;100.00
1616;BME280;801;47.982;7.810;2023-01-30T10:36:29;99457.56;;;2.16;100.00
1616;BME280;801;47.982;7.810;2023-01-30T10:39:00;99437.56;;;1.69;100.00
1616;BME280;801;47.982;7.810;2023-01-30T10:41:30;99433.34;;;2.04;100.00
1616;BME280;801;47.982;7.810;2023-01-30T10:44:00;99418.28;;;1.90;100.00
1616;BME280;801;47.982;7.810;2023-01-30T10:46:44;99367.44;;;2.01;100.00
1616;BME280;801;47.982;7.810;2023-01-30T10:49:18;99380.06;;;2.36;100.00
1616;BME280;801;47.982;7.810;2023-01-30T10:51:55;99397.41;;;2.96;100.00
1616;BME280;801;47.982;7.810;2023-01-30T10:54:28;99375.69;;;3.42;100.00
1616;BME280;801;47.982;7.810;2023-01-30T10:57:02;99410.53;;;3.32;100.00
1616;BME280;801;47.982;7.810;2023-01-30T10:59:43;99403.97;;;3.57;100.00
1616;BME280;801;47.982;7.810;2023-01-30T11:02:22;99397.25;;;3.32;100.00
1616;BME280;801;47.982;7.810;2023-01-30T11:04:56;99381.09;;;2.56;100.00
1616;BME280;801;47.982;7.810;2023-01-30T11:07:22;99392.28;;;2.73;100.00
1616;BME280;801;47.982;7.810;2023-01-30T11:09:50;99375.41;;;2.81;100.00
1616;BME280;801;47.982;7.810;2023-01-30T11:12:17;99375.06;;;3.40;100.00
1616;BME280;801;47.982;7.810;2023-01-30T11:14:55;99386.72;;;2.89;100.00
1616;BME280;801;47.982;7.810;2023-01-30T11:17:28;99394.38;;;3.56;100.00
1616;BME280;801;47.982;7.810;2023-01-30T11:19:56;99392.84;;;3.74;100.00
1616;BME280;801;47.982;7.810;2023-01-30T11:22:27;99394.72;;;3.81;100.00
1616;BME280;801;47.982;7.810;2023-01-30T11:25:08;99373.75;;;3.58;100.00
1616;BME280;801;47.982;7.810;2023-01-30T11:27:36;99355.22;;;4.32;99.58
1616;BME280;801;47.982;7.810;2023-01-30T11:30:08;99354.22;;;3.85;100.00
1616;BME280;801;47.982;7.810;2023-01-30T11:32:37;99347.91;;;3.45;100.00
1616;BME280;801;47.982;7.810;2023-01-30T11:35:19;99347.03;;;3.09;100.00
1616;BME280;801;47.982;7.810;2023-01-30T11:37:48;99345.78;;;3.05;100.00
1616;BME280;801;47.982;7.810;2023-01-30T11:40:23;99335.34;;;2.76;100.00
1616;BME280;801;47.982;7.810;2023-01-30T11:42:52;99355.72;;;2.97;100.00
1616;BME280;801;47.982;7.810;2023-01-30T11:45:24;99333.72;;;2.75;100.00
1616;BME280;801;47.982;7.810;2023-01-30T11:47:53;99314.56;;;3.42;100.00
1616;BME280;801;47.982;7.810;2023-01-30T11:50:23;99320.72;;;3.49;100.00
1616;BME280;801;47.982;7.810;2023-01-30T11:52:52;99313.53;;;3.08;100.00
1616;BME280;801;47.982;7.810;2023-01-30T11:55:20;99323.38;;;2.86;100.00
1616;BME280;801;47.982;7.810;2023-01-30T11:57:49;99319.50;;;3.10;100.00
1616;BME280;801;47.982;7.810;2023-01-30T12:00:19;99321.91;;;3.40;100.00
1616;BME280;801;47.982;7.810;2023-01-30T12:02:48;99316.97;;;3.30;100.00
1616;BME280;801;47.982;7.810;2023-01-30T12:05:21;99308.06;;;3.17;100.00
1616;BME280;801;47.982;7.810;2023-01-30T12:07:50;99299.72;;;3.61;100.00
1616;BME280;801;47.982;7.810;2023-01-30T12:10:25;99301.78;;;3.24;100.00
1616;BME280;801;47.982;7.810;2023-01-30T12:12:55;99298.00;;;3.95;100.00
1616;BME280;801;47.982;7.810;2023-01-30T12:15:25;99337.22;;;3.73;100.00
1616;BME280;801;47.982;7.810;2023-01-30T12:17:58;99327.69;;;3.50;100.00
1616;BME280;801;47.982;7.810;2023-01-30T12:20:45;99317.25;;;3.49;100.00
1616;BME280;801;47.982;7.810;2023-01-30T12:23:17;99321.91;;;3.40;100.00
1616;BME280;801;47.982;7.810;2023-01-30T12:25:57;99319.09;;;3.48;100.00
1616;BME280;801;47.982;7.810;2023-01-30T12:28:33;99324.88;;;3.59;100.00
1616;BME280;801;47.982;7.810;2023-01-30T12:31:03;99331.84;;;3.60;100.00
1616;BME280;801;47.982;7.810;2023-01-30T12:33:32;99330.28;;;3.79;100.00
1616;BME280;801;47.982;7.810;2023-01-30T12:36:08;99326.81;;;3.43;100.00
1616;BME280;801;47.982;7.810;2023-01-30T12:38:49;99326.03;;;3.49;100.00
1616;BME280;801;47.982;7.810;2023-01-30T12:41:30;99321.84;;;3.75;100.00
1616;BME280;801;47.982;7.810;2023-01-30T12:44:12;99303.69;;;3.79;100.00
1616;BME280;801;47.982;7.810;2023-01-30T12:46:59;99287.31;;;3.75;100.00
1616;BME280;801;47.982;7.810;2023-01-30T12:49:40;99299.47;;;3.49;100.00
1616;BME280;801;47.982;7.810;2023-01-30T12:55:17;99280.81;;;3.84;100.00
1616;BME280;801;47.982;7.810;2023-01-30T12:57:52;99286.88;;;3.65;100.00
1616;BME280;801;47.982;7.810;2023-01-30T13:00:30;99286.50;;;3.74;100.00
1616;BME280;801;47.982;7.810;2023-01-30T13:03:12;99291.00;;;3.81;100.00
1616;BME280;801;47.982;7.810;2023-01-30T13:05:50;99291.59;;;3.69;100.00
1616;BME280;801;47.982;7.810;2023-01-30T13:08:29;99279.56;;;3.80;100.00
1616;BME280;801;47.982;7.810;2023-01-30T13:11:05;99288.94;;;3.69;100.00
1616;BME280;801;47.982;7.810;2023-01-30T13:13:41;99291.78;;;3.68;100.00
1616;BME280;801;47.982;7.810;2023-01-30T13:16:19;99287.31;;;3.75;100.00
1616;BME280;801;47.982;7.810;2023-01-30T13:18:53;99285.75;;;3.46;100.00
1616;BME280;801;47.982;7.810;2023-01-30T13:21:24;99283.47;;;3.36;100.00
1616;BME280;801;47.982;7.810;2023-01-30T13:24:18;99264.19;;;3.69;100.00
1616;BME280;801;47.982;7.810;2023-01-30T13:26:48;99265.22;;;3.74;100.00
1616;BME280;801;47.982;7.810;2023-01-30T13:29:22;99260.97;;;3.87;100.00
1616;BME280;801;47.982;7.810;2023-01-30T13:31:52;99257.69;;;3.37;100.00
1616;BME280;801;47.982;7.810;2023-01-30T13:34:24;99255.19;;;3.70;100.00
1616;BME280;801;47.982;7.810;2023-01-30T13:36:59;99271.91;;;3.57;100.00
1616;BME280;801;47.982;7.810;2023-01-30T13:39:34;99280.94;;;3.63;100.00
1616;BME280;801;47.982;7.810;2023-01-30T13:42:05;99241.50;;;3.73;100.00
1616;BME280;801;47.982;7.810;2023-01-30T13:44:35;99261.16;;;3.79;100.00
1616;BME280;801;47.982;7.810;2023-01-30T13:47:13;99277.88;;;3.72;100.00
1616;BME280;801;47.982;7.810;2023-01-30T13:49:48;99301.47;;;3.41;100.00
1616;BME280;801;47.982;7.810;2023-01-30T13:52:23;99270.09;;;3.58;100.00
1616;BME280;801;47.982;7.810;2023-01-30T13:54:59;99282.94;;;3.54;100.00